Time;durP1;ratioP1;P1;durP2;ratioP2;P2;SDS_P1;SDS_P2;PMS_P1;PMS_P2;Temp;Humidity;BMP_temperature;BMP_pressure;BME280_temperature;BME280_humidity;BME280_pressure;Samples;Min_cycle;Max_cycle;Signal;HPM_P1;HPM_P2
2022/02/14 00:00:19;;;;;;;19.20;11.30;;;4.60;56.70;;;;;;5015305;28;20113;-61
2022/02/14 00:02:45;;;;;;;16.95;10.45;;;4.60;56.60;;;;;;5014165;28;20111;-61
2022/02/14 00:05:11;;;;;;;17.42;9.73;;;4.60;57.20;;;;;;5014632;28;20099;-61
2022/02/14 00:07:37;;;;;;;17.05;10.35;;;4.60;56.70;;;;;;4996626;28;20034;-61
2022/02/14 00:10:04;;;;;;;16.92;9.80;;;4.50;56.90;;;;;;4997440;28;20395;-60
2022/02/14 00:12:29;;;;;;;18.80;10.95;;;4.50;56.80;;;;;;5014081;28;20080;-62
2022/02/14 00:14:55;;;;;;;16.73;11.10;;;4.60;56.80;;;;;;5014369;28;20440;-61
2022/02/14 00:17:21;;;;;;;18.00;10.05;;;4.50;56.50;;;;;;4980888;28;20026;-61
2022/02/14 00:19:52;;;;;;;17.23;10.63;;;4.50;56.70;;;;;;5014559;28;20064;-61
2022/02/14 00:22:21;;;;;;;15.60;10.60;;;4.40;56.80;;;;;;5014444;28;20428;-62
2022/02/14 00:24:52;;;;;;;22.83;11.57;;;4.40;56.90;;;;;;5013487;28;20077;-61
2022/02/14 00:27:19;;;;;;;16.48;10.07;;;4.30;56.90;;;;;;5014791;28;20032;-60
2022/02/14 00:29:45;;;;;;;23.33;11.23;;;4.30;57.20;;;;;;5012181;28;20029;-62
2022/02/14 00:32:11;;;;;;;18.88;11.07;;;4.20;57.20;;;;;;5014443;28;20083;-62
2022/02/14 00:34:37;;;;;;;20.75;11.27;;;4.20;57.30;;;;;;5013791;28;20469;-62
2022/02/14 00:37:03;;;;;;;18.55;10.48;;;4.20;57.30;;;;;;4996891;28;20053;-61
2022/02/14 00:39:29;;;;;;;18.77;10.68;;;4.20;57.30;;;;;;5013568;28;20091;-62
2022/02/14 00:41:55;;;;;;;17.25;10.45;;;4.10;57.30;;;;;;5014403;28;20108;-61
2022/02/14 00:44:20;;;;;;;16.00;10.18;;;4.10;57.50;;;;;;5013957;28;20041;-62
2022/02/14 00:46:46;;;;;;;15.85;10.52;;;4.10;57.50;;;;;;4996109;28;20385;-61
2022/02/14 00:49:12;;;;;;;16.60;10.70;;;4.10;57.60;;;;;;5013813;28;20148;-61
2022/02/14 00:51:38;;;;;;;16.35;10.32;;;4.00;58.40;;;;;;5013708;28;20034;-62
2022/02/14 00:54:03;;;;;;;18.67;10.50;;;3.90;57.70;;;;;;4996567;28;20578;-62
2022/02/14 00:56:29;;;;;;;19.27;10.30;;;3.90;57.90;;;;;;5013293;28;20101;-61
2022/02/14 00:58:55;;;;;;;17.05;10.75;;;3.90;57.90;;;;;;5013743;28;20044;-61
2022/02/14 01:01:21;;;;;;;17.45;10.07;;;3.90;57.90;;;;;;5013599;28;20026;-62
2022/02/14 01:03:47;;;;;;;16.88;9.88;;;3.90;57.90;;;;;;4979697;28;20029;-60
2022/02/14 01:06:13;;;;;;;16.40;9.57;;;3.90;58.00;;;;;;5014208;28;20113;-60
2022/02/14 01:08:38;;;;;;;22.90;10.32;;;3.90;58.00;;;;;;4995868;28;20026;-60
2022/02/14 01:11:05;;;;;;;14.43;9.70;;;3.90;58.10;;;;;;5013567;28;20431;-60
2022/02/14 01:13:31;;;;;;;26.40;10.40;;;3.90;58.00;;;;;;4995566;28;20030;-61
2022/02/14 01:15:57;;;;;;;18.92;10.40;;;3.80;57.90;;;;;;5013509;28;20026;-61
2022/02/14 01:18:23;;;;;;;19.85;9.93;;;3.90;58.00;;;;;;5013284;28;20030;-61
2022/02/14 01:20:49;;;;;;;17.50;10.15;;;3.90;58.00;;;;;;5013126;28;20037;-62
2022/02/14 01:23:16;;;;;;;16.52;9.75;;;3.90;58.00;;;;;;5013302;28;20026;-61
2022/02/14 01:25:41;;;;;;;16.00;10.00;;;3.90;57.90;;;;;;4995261;28;20046;-61
2022/02/14 01:28:07;;;;;;;15.95;9.80;;;4.00;57.80;;;;;;4995942;28;20036;-61
2022/02/14 01:30:33;;;;;;;18.20;10.60;;;4.00;57.70;;;;;;5012925;28;20523;-61
2022/02/14 01:33:00;;;;;;;16.33;10.30;;;4.00;57.60;;;;;;5013157;28;20109;-61
2022/02/14 01:35:27;;;;;;;16.10;10.35;;;4.00;57.60;;;;;;5013316;28;20029;-60
2022/02/14 01:37:53;;;;;;;16.63;9.95;;;4.00;57.60;;;;;;5013213;28;20114;-62
2022/02/14 01:40:19;;;;;;;16.60;10.25;;;4.00;57.50;;;;;;5013367;28;20054;-60
2022/02/14 01:42:45;;;;;;;15.00;10.20;;;4.00;57.50;;;;;;5013035;28;20424;-61
2022/02/14 01:45:12;;;;;;;19.25;10.95;;;4.10;57.60;;;;;;5013067;28;20053;-62
2022/02/14 01:47:38;;;;;;;16.75;10.55;;;4.10;57.40;;;;;;5012679;28;20065;-61
2022/02/14 01:50:05;;;;;;;17.38;9.65;;;4.10;57.40;;;;;;4995505;28;20112;-60
2022/02/14 01:52:31;;;;;;;16.08;9.85;;;4.10;57.30;;;;;;5012634;28;20068;-62
2022/02/14 01:54:58;;;;;;;16.85;9.65;;;4.00;57.40;;;;;;5013333;28;20026;-61
2022/02/14 01:57:24;;;;;;;16.98;9.05;;;4.00;57.40;;;;;;5012979;28;20025;-62
2022/02/14 01:59:50;;;;;;;16.27;9.98;;;4.00;57.50;;;;;;5012482;28;20143;-62
2022/02/14 02:02:16;;;;;;;15.50;10.32;;;4.00;57.70;;;;;;5012880;28;20029;-62
2022/02/14 02:04:43;;;;;;;15.70;9.55;;;3.90;57.80;;;;;;5011889;28;20061;-62
2022/02/14 02:07:09;;;;;;;16.88;10.48;;;3.90;57.80;;;;;;5012521;28;20028;-62
2022/02/14 02:09:35;;;;;;;15.40;9.77;;;3.90;57.80;;;;;;5011940;28;20029;-62
2022/02/14 02:14:46;;;;;;;16.13;10.27;;;3.90;58.00;;;;;;5012180;28;20068;-62
2022/02/14 02:17:11;;;;;;;16.70;9.75;;;3.80;58.00;;;;;;5012506;28;20021;-62
2022/02/14 02:19:37;;;;;;;14.65;8.90;;;3.80;58.10;;;;;;5012374;28;20119;-61
2022/02/14 02:22:03;;;;;;;15.13;9.40;;;3.80;58.10;;;;;;5012499;28;20025;-61
2022/02/14 02:24:33;;;;;;;15.00;9.10;;;3.90;58.10;;;;;;5012551;28;20026;-61
2022/02/14 02:27:04;;;;;;;16.63;9.45;;;3.80;58.10;;;;;;5012559;28;20483;-61
2022/02/14 02:29:36;;;;;;;13.73;8.77;;;3.80;58.10;;;;;;5012775;28;20037;-61
2022/02/14 02:32:02;;;;;;;16.27;9.73;;;3.80;58.20;;;;;;5012731;28;20103;-62
2022/02/14 02:34:27;;;;;;;16.58;9.23;;;3.80;58.10;;;;;;5012709;28;20030;-62
2022/02/14 02:36:56;;;;;;;13.68;9.07;;;3.80;58.20;;;;;;5011880;28;20026;-62
2022/02/14 02:39:23;;;;;;;16.83;8.93;;;3.80;58.10;;;;;;4994706;28;20038;-61
2022/02/14 02:41:50;;;;;;;16.20;8.80;;;3.70;58.10;;;;;;5011934;28;20030;-62
2022/02/14 02:44:16;;;;;;;23.00;10.32;;;3.80;58.20;;;;;;4994982;28;20030;-61
2022/02/14 02:46:42;;;;;;;15.82;9.68;;;3.70;58.00;;;;;;5011908;28;20081;-60
2022/02/14 02:49:19;;;;;;;15.57;9.35;;;3.70;58.20;;;;;;5015345;28;20037;-62
2022/02/14 02:51:50;;;;;;;17.38;9.25;;;3.70;58.30;;;;;;5016093;28;20029;-61
2022/02/14 02:54:17;;;;;;;18.42;9.70;;;3.70;58.30;;;;;;4998473;28;20026;-62
2022/02/14 02:56:44;;;;;;;14.75;9.38;;;3.80;58.20;;;;;;5015691;28;20417;-60
2022/02/14 02:59:10;;;;;;;16.67;9.77;;;3.80;58.00;;;;;;5016177;28;20100;-59
2022/02/14 03:01:37;;;;;;;16.08;9.68;;;3.80;58.00;;;;;;5015496;28;20034;-62
2022/02/14 03:04:04;;;;;;;16.17;9.43;;;3.80;58.00;;;;;;5016608;28;20065;-61
2022/02/14 03:06:30;;;;;;;15.90;10.75;;;3.80;57.90;;;;;;5015954;28;20109;-61
2022/02/14 03:08:56;;;;;;;16.98;10.35;;;3.80;57.90;;;;;;4998197;28;20116;-61
2022/02/14 03:11:22;;;;;;;16.77;9.68;;;3.90;57.90;;;;;;5015895;28;20026;-62
2022/02/14 03:13:49;;;;;;;17.50;10.02;;;3.80;57.80;;;;;;5015446;28;20026;-62
2022/02/14 03:16:15;;;;;;;17.95;9.75;;;3.80;57.80;;;;;;4998396;28;20030;-61
2022/02/14 03:18:42;;;;;;;17.35;10.10;;;3.80;57.90;;;;;;4997796;28;20038;-61
2022/02/14 03:21:08;;;;;;;18.45;10.45;;;3.80;58.10;;;;;;5015906;28;20032;-61
2022/02/14 03:23:35;;;;;;;18.10;10.10;;;3.70;58.20;;;;;;5015680;28;20029;-62
2022/02/14 03:26:02;;;;;;;16.55;9.98;;;3.60;58.40;;;;;;5015280;28;20046;-62
2022/02/14 03:28:27;;;;;;;17.88;10.23;;;3.60;58.30;;;;;;5015745;28;20053;-61
2022/02/14 03:30:54;;;;;;;16.02;9.95;;;3.60;58.40;;;;;;5014934;28;20089;-61
2022/02/14 03:33:19;;;;;;;16.80;10.25;;;3.60;58.50;;;;;;4997920;28;20026;-62
2022/02/14 03:35:45;;;;;;;19.73;10.30;;;3.60;58.50;;;;;;5015087;28;20105;-60
2022/02/14 03:38:11;;;;;;;16.58;9.93;;;3.60;58.50;;;;;;5015293;28;20030;-61
2022/02/14 03:40:37;;;;;;;18.30;11.07;;;3.60;59.10;;;;;;4997370;28;20029;-63
2022/02/14 03:43:06;;;;;;;18.30;10.82;;;3.60;58.40;;;;;;5015139;28;20481;-61
2022/02/14 03:45:33;;;;;;;15.80;10.43;;;3.60;58.40;;;;;;5015355;28;20057;-63
2022/02/14 03:48:00;;;;;;;15.82;9.95;;;3.60;58.60;;;;;;5014496;28;20076;-61
2022/02/14 03:50:25;;;;;;;16.38;9.88;;;3.50;58.70;;;;;;5014023;28;20083;-61
2022/02/14 03:52:51;;;;;;;20.95;10.55;;;3.40;58.90;;;;;;4997077;28;20021;-62
2022/02/14 03:55:17;;;;;;;19.63;10.93;;;3.40;58.90;;;;;;5015267;28;20372;-61
2022/02/14 03:57:43;;;;;;;19.02;10.75;;;3.40;59.30;;;;;;4997052;28;20033;-60
2022/02/14 04:00:11;;;;;;;22.83;10.85;;;3.30;59.40;;;;;;4996188;28;20026;-60
2022/02/14 04:02:38;;;;;;;20.50;11.50;;;3.30;59.50;;;;;;5014673;28;20018;-60
2022/02/14 04:05:04;;;;;;;20.58;11.63;;;3.30;59.50;;;;;;4997197;28;20026;-61
2022/02/14 04:07:30;;;;;;;18.63;11.13;;;3.20;60.00;;;;;;5014764;28;20492;-61
2022/02/14 04:09:56;;;;;;;15.32;10.25;;;3.20;60.10;;;;;;5014170;28;20025;-60
2022/02/14 04:12:22;;;;;;;17.90;10.75;;;3.20;60.00;;;;;;5014867;28;20060;-59
2022/02/14 04:14:48;;;;;;;18.85;10.77;;;3.20;60.00;;;;;;5014411;28;20026;-62
2022/02/14 04:17:13;;;;;;;18.25;11.07;;;3.30;60.00;;;;;;4997240;28;20442;-61
2022/02/14 04:19:39;;;;;;;17.45;11.48;;;3.30;60.00;;;;;;5014028;28;20112;-63
2022/02/14 04:22:05;;;;;;;20.58;11.52;;;3.20;60.00;;;;;;5015067;28;20100;-60
2022/02/14 04:24:31;;;;;;;18.15;11.48;;;3.20;60.10;;;;;;4996849;28;20053;-60
2022/02/14 04:26:57;;;;;;;17.77;11.10;;;3.20;60.30;;;;;;5014193;28;20037;-61
2022/02/14 04:29:23;;;;;;;17.42;12.25;;;3.20;60.30;;;;;;5014289;28;20393;-61
2022/02/14 04:31:49;;;;;;;17.67;11.02;;;3.20;60.60;;;;;;5013839;28;20037;-60
2022/02/14 04:34:18;;;;;;;19.25;11.90;;;3.20;60.50;;;;;;4996901;28;20461;-60
2022/02/14 04:36:47;;;;;;;20.45;11.90;;;3.20;60.50;;;;;;5013659;28;20053;-62
2022/02/14 04:39:13;;;;;;;17.90;11.63;;;3.20;60.70;;;;;;5014052;28;20180;-61
2022/02/14 04:41:40;;;;;;;20.33;11.40;;;3.10;61.00;;;;;;5014522;28;20108;-61
2022/02/14 04:44:06;;;;;;;20.92;12.45;;;3.00;61.30;;;;;;5014244;28;20030;-61
2022/02/14 04:46:32;;;;;;;19.88;12.43;;;3.00;61.60;;;;;;5013880;28;20018;-61
2022/02/14 04:48:58;;;;;;;24.58;12.45;;;2.90;61.80;;;;;;5013549;28;20029;-61
2022/02/14 04:51:25;;;;;;;23.25;12.80;;;2.90;61.90;;;;;;5013574;28;20050;-62
2022/02/14 04:53:52;;;;;;;19.65;12.50;;;2.90;62.00;;;;;;5013212;28;20492;-61
2022/02/14 04:56:18;;;;;;;19.38;12.02;;;3.00;62.00;;;;;;4996267;28;20057;-61
2022/02/14 04:58:44;;;;;;;19.83;12.40;;;2.90;62.10;;;;;;4995760;28;20061;-62
2022/02/14 05:01:10;;;;;;;19.75;12.18;;;2.90;62.30;;;;;;5013896;28;20026;-61
2022/02/14 05:03:36;;;;;;;21.30;12.07;;;2.90;62.40;;;;;;5013645;28;20038;-61
2022/02/14 05:06:02;;;;;;;18.75;12.40;;;2.90;62.30;;;;;;5013404;28;20631;-60
2022/02/14 05:08:28;;;;;;;22.33;12.43;;;2.90;62.30;;;;;;5013548;28;20033;-60
2022/02/14 05:10:53;;;;;;;19.63;11.82;;;2.90;62.50;;;;;;5012489;28;20034;-60
2022/02/14 05:13:19;;;;;;;20.30;13.10;;;2.90;62.40;;;;;;4996098;28;20030;-61
2022/02/14 05:15:45;;;;;;;23.77;13.10;;;3.00;62.40;;;;;;5012950;28;20022;-60
2022/02/14 05:18:10;;;;;;;23.50;13.70;;;2.90;62.50;;;;;;5013258;28;20034;-61
2022/02/14 05:20:36;;;;;;;22.90;13.43;;;2.90;62.80;;;;;;4996007;28;20030;-61
2022/02/14 05:23:02;;;;;;;26.95;14.00;;;2.90;62.90;;;;;;5011972;28;20054;-61
2022/02/14 05:25:27;;;;;;;28.13;14.63;;;2.80;63.20;;;;;;5012204;28;20412;-61
2022/02/14 05:27:53;;;;;;;21.45;13.63;;;2.80;63.20;;;;;;5012481;28;20102;-61
2022/02/14 05:30:20;;;;;;;22.58;13.38;;;2.80;63.30;;;;;;4995596;28;20527;-62
2022/02/14 05:32:45;;;;;;;19.70;13.40;;;2.80;63.60;;;;;;5012603;28;20026;-60
2022/02/14 05:35:11;;;;;;;21.73;13.02;;;2.70;63.70;;;;;;5012895;28;20033;-62
2022/02/14 05:37:37;;;;;;;21.85;14.10;;;2.70;64.00;;;;;;5013130;28;20088;-61
2022/02/14 05:40:03;;;;;;;21.75;13.75;;;2.70;64.10;;;;;;5012680;28;20032;-63
2022/02/14 05:42:29;;;;;;;20.90;13.65;;;2.60;64.50;;;;;;5012686;28;20038;-60
2022/02/14 05:44:55;;;;;;;25.50;13.93;;;2.60;64.60;;;;;;5012298;28;20024;-61
2022/02/14 05:47:21;;;;;;;24.90;13.45;;;2.50;64.70;;;;;;5013205;28;20026;-61
2022/02/14 05:49:48;;;;;;;26.95;13.95;;;2.60;64.90;;;;;;5012452;28;20034;-62
2022/02/14 05:52:13;;;;;;;22.02;13.25;;;2.60;65.00;;;;;;5012792;28;20030;-61
2022/02/14 05:54:39;;;;;;;24.27;14.20;;;2.50;65.00;;;;;;5012645;28;20026;-61
2022/02/14 05:57:05;;;;;;;22.17;13.23;;;2.50;65.00;;;;;;5012276;28;20030;-61
2022/02/14 05:59:31;;;;;;;23.00;13.90;;;2.50;65.50;;;;;;4994951;28;20042;-61
2022/02/14 06:01:57;;;;;;;28.02;15.07;;;2.40;65.80;;;;;;4994176;28;20515;-61
2022/02/14 06:04:23;;;;;;;24.42;14.85;;;2.30;66.30;;;;;;5011949;28;20026;-59
2022/02/14 06:06:48;;;;;;;22.60;14.07;;;2.20;66.50;;;;;;5012218;28;20022;-58
2022/02/14 06:09:14;;;;;;;22.30;13.63;;;2.30;66.70;;;;;;5012423;28;20110;-61
2022/02/14 06:11:41;;;;;;;23.05;14.82;;;2.30;66.90;;;;;;5012456;28;20072;-62
2022/02/14 06:14:06;;;;;;;26.88;16.00;;;2.20;66.90;;;;;;5012018;28;20083;-61
2022/02/14 06:16:32;;;;;;;24.67;14.50;;;2.20;67.00;;;;;;5012617;28;20025;-59
2022/02/14 06:18:58;;;;;;;25.90;15.10;;;2.20;67.20;;;;;;5010997;28;20038;-60
2022/02/14 06:21:25;;;;;;;26.70;15.30;;;2.20;67.50;;;;;;5011486;28;20033;-60
2022/02/14 06:23:51;;;;;;;21.35;13.88;;;2.20;67.40;;;;;;5010246;28;20045;-59
2022/02/14 06:26:17;;;;;;;21.63;13.93;;;2.20;67.70;;;;;;4994076;28;20136;-60
2022/02/14 06:28:43;;;;;;;25.40;15.45;;;2.20;67.80;;;;;;5011728;28;20092;-60
2022/02/14 06:31:09;;;;;;;29.10;16.02;;;2.30;67.80;;;;;;4993906;28;20025;-61
2022/02/14 06:33:37;;;;;;;23.15;15.52;;;2.30;67.80;;;;;;5011627;28;20030;-61
2022/02/14 06:36:04;;;;;;;30.45;16.38;;;2.30;67.70;;;;;;5010421;28;20488;-59
2022/02/14 06:38:30;;;;;;;27.98;15.23;;;2.30;67.60;;;;;;5011445;28;20041;-61
2022/02/14 06:40:55;;;;;;;34.58;15.13;;;2.40;67.60;;;;;;5011342;28;20026;-59
2022/02/14 06:43:21;;;;;;;26.02;15.80;;;2.40;67.30;;;;;;5011451;28;20480;-60
2022/02/14 06:45:47;;;;;;;25.98;15.50;;;2.50;67.00;;;;;;4978002;28;20132;-60
2022/02/14 06:48:13;;;;;;;24.98;16.27;;;2.60;66.80;;;;;;5011284;28;20041;-61
2022/02/14 06:50:38;;;;;;;26.40;15.63;;;2.70;66.60;;;;;;5011939;28;20026;-62
2022/02/14 06:53:04;;;;;;;24.92;15.63;;;2.70;66.30;;;;;;5011931;28;20022;-58
2022/02/14 06:55:30;;;;;;;40.30;16.38;;;2.70;66.30;;;;;;5011876;28;20153;-58
2022/02/14 06:57:56;;;;;;;25.05;16.33;;;2.80;66.40;;;;;;5011378;28;20034;-61
2022/02/14 07:00:22;;;;;;;27.20;15.68;;;2.80;66.40;;;;;;5011635;28;20033;-60
2022/02/14 07:02:48;;;;;;;23.00;16.08;;;2.80;66.20;;;;;;5011914;28;20022;-60
2022/02/14 07:07:58;;;;;;;24.73;15.10;;;3.00;65.90;;;;;;5011257;28;20041;-61
2022/02/14 07:10:24;;;;;;;29.25;15.60;;;3.00;65.60;;;;;;5011884;28;20025;-61
2022/02/14 07:12:50;;;;;;;29.08;17.00;;;3.00;65.40;;;;;;4994306;28;20048;-61
2022/02/14 07:15:16;;;;;;;25.38;16.02;;;3.00;65.50;;;;;;5011728;28;20421;-62
2022/02/14 07:17:45;;;;;;;28.55;16.35;;;3.10;65.60;;;;;;5011976;28;20041;-64
2022/02/14 07:20:11;;;;;;;26.75;15.95;;;3.10;65.30;;;;;;4993554;28;20352;-63
2022/02/14 07:22:37;;;;;;;31.80;16.70;;;3.10;65.30;;;;;;5011250;28;20025;-60
2022/02/14 07:25:03;;;;;;;31.35;16.58;;;3.20;65.10;;;;;;5010775;28;20072;-61
2022/02/14 07:27:33;;;;;;;27.77;15.52;;;3.20;65.00;;;;;;4993850;28;20052;-60
2022/02/14 07:29:59;;;;;;;31.55;16.58;;;3.30;64.90;;;;;;4993529;28;20388;-62
2022/02/14 07:32:24;;;;;;;25.77;16.13;;;3.50;64.70;;;;;;5011674;28;20022;-60
2022/02/14 07:34:50;;;;;;;30.60;17.58;;;3.50;64.10;;;;;;4996623;28;20370;-60
2022/02/14 07:37:16;;;;;;;30.45;19.98;;;3.60;64.20;;;;;;5014479;28;20029;-60
2022/02/14 07:39:42;;;;;;;28.63;18.10;;;4.40;66.00;;;;;;5014859;28;20077;-61
2022/02/14 07:42:08;;;;;;;28.23;17.65;;;7.30;60.80;;;;;;5014268;28;20029;-62
2022/02/14 07:44:33;;;;;;;26.75;17.13;;;10.00;54.70;;;;;;5015042;28;20301;-61
2022/02/14 07:46:59;;;;;;;25.63;17.17;;;11.00;48.40;;;;;;5014392;28;20030;-60
2022/02/14 07:49:25;;;;;;;27.52;18.30;;;10.00;47.80;;;;;;5014715;28;20034;-60
2022/02/14 07:51:51;;;;;;;24.58;18.65;;;10.90;49.50;;;;;;5015025;28;20029;-62
2022/02/14 07:54:16;;;;;;;24.25;18.02;;;12.90;46.10;;;;;;4996214;28;20229;-60
2022/02/14 07:56:42;;;;;;;26.00;18.42;;;14.30;42.50;;;;;;5014926;28;20108;-62
2022/02/14 07:59:08;;;;;;;28.75;18.65;;;15.40;40.40;;;;;;5013935;28;20427;-61
2022/02/14 08:01:34;;;;;;;23.15;17.25;;;16.30;37.80;;;;;;5013868;28;20053;-61
2022/02/14 08:04:00;;;;;;;24.25;18.35;;;16.80;36.40;;;;;;5013868;28;20026;-63
2022/02/14 08:06:26;;;;;;;21.73;17.13;;;17.40;35.40;;;;;;5013538;28;20026;-61
2022/02/14 08:08:52;;;;;;;21.05;16.63;;;17.60;33.80;;;;;;5014230;28;20476;-60
2022/02/14 08:11:19;;;;;;;26.42;18.88;;;17.90;33.70;;;;;;5013823;28;20030;-60
2022/02/14 08:13:47;;;;;;;27.25;21.67;;;18.30;33.10;;;;;;5012574;28;20045;-61
2022/02/14 08:16:13;;;;;;;22.98;17.42;;;18.30;32.30;;;;;;5013726;28;20026;-61
2022/02/14 08:18:39;;;;;;;24.42;18.27;;;17.50;31.60;;;;;;4996593;28;20041;-61
2022/02/14 08:21:05;;;;;;;24.13;17.55;;;15.90;33.60;;;;;;5013054;28;20531;-61
2022/02/14 08:23:31;;;;;;;21.33;16.02;;;14.10;35.40;;;;;;5013557;28;20057;-60
2022/02/14 08:25:57;;;;;;;21.95;16.65;;;12.60;38.40;;;;;;4978394;28;20501;-62
2022/02/14 08:28:23;;;;;;;22.65;17.33;;;11.40;40.70;;;;;;4973744;28;20046;-62
2022/02/14 08:30:52;;;;;;;27.90;17.20;;;10.50;42.40;;;;;;4971680;28;20050;-63
2022/02/14 08:33:18;;;;;;;25.65;16.92;;;9.90;43.80;;;;;;4973499;28;20022;-61
2022/02/14 08:35:44;;;;;;;26.58;18.67;;;9.30;44.80;;;;;;4973741;28;20476;-61
2022/02/14 08:38:11;;;;;;;22.58;16.80;;;8.90;46.00;;;;;;4971267;28;20039;-59
2022/02/14 08:40:37;;;;;;;26.33;16.88;;;8.40;47.20;;;;;;4975205;28;20110;-58
2022/02/14 08:43:04;;;;;;;26.23;17.83;;;8.10;48.10;;;;;;4974470;28;20027;-59
2022/02/14 08:45:34;;;;;;;26.17;17.20;;;7.90;49.20;;;;;;4973308;28;20126;-55
2022/02/14 08:48:01;;;;;;;28.08;17.33;;;7.60;50.10;;;;;;4972212;28;20026;-61
2022/02/14 08:50:29;;;;;;;24.30;16.88;;;7.20;51.30;;;;;;4973651;28;20019;-63
2022/02/14 08:53:00;;;;;;;26.55;17.17;;;7.10;51.70;;;;;;4970967;28;20215;-61
2022/02/14 08:55:28;;;;;;;25.92;18.13;;;7.00;52.10;;;;;;4971649;28;20026;-62
2022/02/14 08:57:54;;;;;;;25.67;17.48;;;6.90;52.50;;;;;;4972985;28;20414;-57
2022/02/14 09:00:20;;;;;;;25.20;17.13;;;6.70;52.90;;;;;;4973117;28;20469;-59
2022/02/14 09:02:45;;;;;;;28.98;18.92;;;6.70;53.40;;;;;;4972683;28;20026;-60
2022/02/14 09:05:12;;;;;;;28.33;18.40;;;6.70;53.40;;;;;;4971826;28;20489;-62
2022/02/14 09:07:38;;;;;;;27.33;16.55;;;6.70;53.70;;;;;;4972642;28;20030;-63
2022/02/14 09:10:05;;;;;;;35.58;19.38;;;6.50;54.30;;;;;;4973716;28;20457;-62
2022/02/14 09:12:31;;;;;;;28.35;17.77;;;6.50;54.70;;;;;;4973895;28;20058;-64
2022/02/14 09:14:58;;;;;;;27.67;18.63;;;6.40;55.00;;;;;;4973565;28;20393;-62
2022/02/14 09:17:25;;;;;;;34.85;20.38;;;6.40;55.20;;;;;;4972420;28;20133;-64
2022/02/14 09:19:51;;;;;;;27.77;17.40;;;6.30;55.20;;;;;;4973500;28;20038;-62
2022/02/14 09:22:17;;;;;;;34.13;19.65;;;6.30;55.40;;;;;;4973217;28;20547;-62
2022/02/14 09:24:43;;;;;;;33.00;21.63;;;6.40;55.50;;;;;;4971869;28;20042;-62
2022/02/14 09:27:10;;;;;;;25.15;16.95;;;6.40;55.50;;;;;;4972734;28;20023;-62
2022/02/14 09:29:36;;;;;;;24.30;16.60;;;6.40;55.40;;;;;;4972737;28;20661;-62
2022/02/14 09:32:03;;;;;;;25.08;16.98;;;6.50;55.40;;;;;;4970627;28;20382;-67
2022/02/14 09:34:29;;;;;;;24.48;17.38;;;6.40;55.20;;;;;;4971862;28;20399;-65
2022/02/14 09:36:56;;;;;;;29.33;17.23;;;6.40;55.20;;;;;;4972117;28;20023;-68
2022/02/14 09:39:24;;;;;;;24.45;17.23;;;6.40;55.30;;;;;;4971255;28;20035;-61
2022/02/14 09:41:50;;;;;;;25.90;16.58;;;6.50;55.30;;;;;;4973115;28;20110;-58
2022/02/14 09:44:16;;;;;;;57.60;32.00;;;6.50;55.50;;;;;;4970677;28;20031;-62
2022/02/14 09:46:43;;;;;;;41.65;23.85;;;6.60;55.30;;;;;;4973254;28;20027;-62
2022/02/14 09:49:10;;;;;;;29.40;19.00;;;6.70;54.90;;;;;;4970588;28;20057;-63
2022/02/14 09:51:36;;;;;;;26.52;16.98;;;6.70;54.80;;;;;;4972446;28;20039;-62
2022/02/14 09:54:03;;;;;;;24.48;16.70;;;6.90;54.70;;;;;;4972267;28;20389;-65
2022/02/14 09:56:49;;;;;;;25.02;16.75;;;6.90;54.30;;;;;;4972599;28;20465;-66
2022/02/14 09:59:16;;;;;;;22.00;15.80;;;6.90;54.20;;;;;;4970692;28;20038;-62
2022/02/14 10:01:43;;;;;;;26.48;16.95;;;7.10;54.20;;;;;;4971365;28;20023;-64
2022/02/14 10:04:09;;;;;;;24.38;16.35;;;7.00;54.10;;;;;;4970860;28;20055;-63
2022/02/14 10:06:40;;;;;;;24.08;17.02;;;7.00;54.20;;;;;;4972517;28;20065;-63
2022/02/14 10:09:15;;;;;;;25.00;17.27;;;7.00;54.40;;;;;;4970827;28;20038;-62
2022/02/14 10:12:01;;;;;;;23.13;17.05;;;7.10;54.00;;;;;;4971217;28;20054;-65
2022/02/14 10:14:28;;;;;;;27.50;16.63;;;7.00;53.80;;;;;;4971126;28;20061;-62
2022/02/14 10:17:06;;;;;;;24.38;16.35;;;7.00;53.90;;;;;;4968018;28;20059;-68
2022/02/14 10:19:40;;;;;;;23.15;16.40;;;7.00;54.00;;;;;;4967213;28;20499;-66
2022/02/14 10:22:07;;;;;;;27.05;17.58;;;7.00;54.10;;;;;;4971100;28;20023;-66
2022/02/14 10:24:43;;;;;;;24.70;16.23;;;7.20;53.90;;;;;;4976819;28;20058;-64
2022/02/14 10:27:11;;;;;;;24.85;16.45;;;7.20;53.90;;;;;;4988204;28;20183;-65
2022/02/14 10:29:38;;;;;;;23.02;16.27;;;7.30;53.60;;;;;;5012172;28;20116;-62
2022/02/14 10:32:21;;;;;;;24.17;15.07;;;7.30;53.40;;;;;;5010623;28;20026;-62
2022/02/14 10:34:54;;;;;;;20.50;15.45;;;7.30;53.00;;;;;;5010039;28;20112;-63
2022/02/14 10:37:36;;;;;;;26.50;16.27;;;7.30;52.80;;;;;;4991791;28;20026;-63
2022/02/14 10:40:03;;;;;;;22.20;14.88;;;7.30;53.00;;;;;;5006176;28;20038;-64
2022/02/14 10:42:34;;;;;;;23.05;17.20;;;7.40;53.10;;;;;;5011401;28;20033;-65
2022/02/14 10:45:09;;;;;;;28.17;17.08;;;7.50;53.20;;;;;;5004621;28;20041;-68
2022/02/14 10:47:47;;;;;;;22.67;15.85;;;7.60;53.30;;;;;;5004690;28;20030;-67
2022/02/14 10:50:14;;;;;;;27.55;16.05;;;7.60;52.30;;;;;;4991342;28;20041;-69
2022/02/14 10:52:53;;;;;;;27.40;16.63;;;7.80;52.00;;;;;;5009605;28;20128;-67
2022/02/14 10:55:42;;;;;;;26.30;16.20;;;8.00;51.50;;;;;;5010583;28;20443;-67
2022/02/14 10:58:08;;;;;;;31.33;16.63;;;8.20;51.40;;;;;;4993130;28;20044;-68
2022/02/14 11:00:38;;;;;;;23.52;16.02;;;8.30;51.20;;;;;;5010724;28;20022;-69
2022/02/14 11:03:11;;;;;;;22.50;16.52;;;8.40;50.70;;;;;;4992239;28;20052;-68
2022/02/14 11:05:40;;;;;;;21.23;15.15;;;8.50;50.40;;;;;;4992861;28;20037;-68
2022/02/14 11:08:08;;;;;;;20.33;14.88;;;8.40;49.40;;;;;;5010456;28;20029;-68
2022/02/14 11:10:37;;;;;;;23.60;15.63;;;8.20;50.00;;;;;;5013774;28;20117;-67
2022/02/14 11:13:03;;;;;;;20.90;15.27;;;8.40;50.20;;;;;;5013518;28;20080;-70
2022/02/14 11:15:34;;;;;;;22.05;15.38;;;8.50;50.00;;;;;;5014214;28;20424;-69
2022/02/14 11:18:01;;;;;;;21.35;14.70;;;8.70;49.70;;;;;;5014443;28;20129;-70
2022/02/14 11:20:27;;;;;;;19.15;14.23;;;8.70;48.50;;;;;;4995681;28;20061;-68
2022/02/14 11:22:55;;;;;;;23.42;14.77;;;8.50;48.50;;;;;;5014214;28;20069;-68
2022/02/14 11:25:41;;;;;;;23.95;14.48;;;8.50;48.90;;;;;;5013534;28;20250;-68
2022/02/14 11:28:40;;;;;;;19.52;14.13;;;8.50;48.40;;;;;;4995621;28;20473;-68
2022/02/14 11:31:20;;;;;;;21.65;14.10;;;8.40;48.40;;;;;;5013451;28;20032;-69
2022/02/14 11:33:53;;;;;;;24.75;14.85;;;8.50;48.60;;;;;;5014281;28;20044;-67
2022/02/14 11:36:20;;;;;;;20.77;15.60;;;8.70;48.40;;;;;;4995739;28;20032;-69
2022/02/14 11:38:56;;;;;;;22.67;14.80;;;8.80;48.20;;;;;;5014028;28;20467;-68
2022/02/14 11:41:40;;;;;;;25.38;14.90;;;8.70;47.90;;;;;;4995135;28;20060;-68
2022/02/14 11:44:16;;;;;;;24.20;15.65;;;8.80;48.60;;;;;;5013313;28;20069;-68
2022/02/14 11:46:46;;;;;;;21.00;15.02;;;8.90;48.00;;;;;;4996745;28;20030;-69
2022/02/14 11:49:11;;;;;;;22.88;15.55;;;8.90;47.90;;;;;;5014006;28;20034;-69
2022/02/14 11:51:54;;;;;;;22.75;16.55;;;8.90;47.90;;;;;;4993342;28;20112;-67
2022/02/14 11:54:37;;;;;;;20.33;15.20;;;8.90;47.60;;;;;;5011564;28;20145;-68
2022/02/14 11:57:17;;;;;;;20.20;14.82;;;9.00;47.30;;;;;;5012350;28;20279;-67
2022/02/14 11:59:44;;;;;;;19.08;13.75;;;9.60;46.40;;;;;;5013552;28;20128;-69
2022/02/14 12:02:11;;;;;;;19.83;14.57;;;9.90;45.80;;;;;;4995824;28;20471;-68
2022/02/14 12:04:38;;;;;;;20.65;15.10;;;10.40;44.70;;;;;;5013599;28;20022;-68
2022/02/14 12:07:23;;;;;;;33.55;22.05;;;10.20;44.60;;;;;;5013064;28;20094;-68
2022/02/14 12:12:39;;;;;;;20.05;14.00;;;9.80;45.60;;;;;;5012395;28;20034;-68
2022/02/14 12:20:47;;;;;;;20.17;14.52;;;9.70;45.70;;;;;;5012246;28;20037;-69
2022/02/14 12:23:15;;;;;;;23.35;13.57;;;9.60;44.80;;;;;;5010706;28;20465;-67
2022/02/14 12:25:49;;;;;;;18.67;13.40;;;9.60;45.10;;;;;;5012447;28;20385;-68
2022/02/14 12:28:17;;;;;;;18.50;13.38;;;9.60;45.00;;;;;;4994493;28;20033;-67
2022/02/14 12:30:44;;;;;;;25.77;15.27;;;9.70;44.90;;;;;;5012679;28;20026;-67
2022/02/14 12:33:11;;;;;;;19.42;13.23;;;9.70;44.30;;;;;;5012396;28;20057;-68
2022/02/14 12:35:45;;;;;;;23.25;13.23;;;9.70;44.10;;;;;;5012783;28;20029;-67
2022/02/14 12:38:12;;;;;;;21.20;14.63;;;9.60;44.30;;;;;;5012607;28;20480;-69
2022/02/14 12:40:50;;;;;;;30.98;17.75;;;9.70;44.50;;;;;;5011145;28;20025;-66
2022/02/14 12:43:22;;;;;;;28.95;16.42;;;9.70;44.70;;;;;;5011994;28;20022;-66
2022/02/14 12:45:49;;;;;;;24.23;15.50;;;9.80;44.80;;;;;;4994914;28;20053;-67
2022/02/14 12:48:28;;;;;;;32.83;17.60;;;10.30;44.40;;;;;;4995073;28;20480;-67
2022/02/14 12:50:54;;;;;;;23.70;14.02;;;10.50;43.10;;;;;;5011684;28;20026;-68
2022/02/14 12:53:20;;;;;;;20.23;13.05;;;10.50;42.80;;;;;;4994742;28;20099;-67